Sea Island, GA (31561)

7:58 AM EST on February 13, 2016 (GMT -0500)
Bloody Marsh | | Change Station
CLOSE
Current Station
Personal Weather Station
Location: Saint Simons Island, GA
Elevation: 7 ft
Nearby Weather Stations
Active Advisory: Flood Warning

Elev 7 ft 31.16 °N, 81.38 °W | Updated 11 minutes ago

Clear
Clear
47.1 °F
Feels Like 47 °F
N
2.2
Wind Variable Wind from NW

Today
High -- | Low -- °F
--% Chance of Precip.
Yesterday
High -- | Low -- °F
Precip. -- in
Pressure 30.25 in
Visibility 10.0 miles
Clouds Clear
Windchill 47 °F
Dew Point 34 °F
Humidity 60%
Rainfall 0.00 in
Snow Depth Not available.
7:08 AM 6:10 PM
Waxing Crescent, 30% visible
METAR KSSI 131253Z AUTO 30006KT 10SM CLR 08/01 A3024 RMK AO2 SLP242 T00780006 $
Pressure 30.25 in
Visibility 10.0 miles
Clouds Clear
Windchill 47 °F
Dew Point 34 °F
Humidity 60%
Rainfall 0.00 in
Snow Depth Not available.
7:08 AM 6:10 PM
Waxing Crescent, 30% visible
METAR KSSI 131253Z AUTO 30006KT 10SM CLR 08/01 A3024 RMK AO2 SLP242 T00780006 $

10-Day Weather Forecast

Almanac

Astronomy

Feb. 13, 2016 Rise Set
Actual Time
Civil Twilight
Nautical Twilight
Astronomical Twilight
Moon
Length of Visible Light
Length of Day
Tomorrow will be .
, % of the Moon is Illuminated

Today's Extremes

State Highs State Lows

Community

WunderPhotos

Upload Photos

1,892,543 photos uploaded!

WunderBlog® & News

Nearby

Air Quality

  Air Quality AQ Index Pollutant
Not available.

Snow Depth

Station Depth Elevation

Earthquake Activity

City Distance Mag. Time & Date
Minimum magnitude displayed is 2.5.

Coastal Water Temperatures

Place Temperature

Stations

Nearby Weather Stations

Station Location Temp. Windchill Dew Point Humidity Wind Precip. Elev Updated Type
                   

Watches & Warnings

Flood Warning
Issued: 8:45 PM EST Feb. 12, 2016 – National Weather Service

The Flood Warning continues for
the Altamaha river at Everett city.
* Until further notice... or until the warning is cancelled.
* At 8:15 PM Friday the stage was 13.4 feet.
* Moderate flooding is occurring and moderate flooding is forecast.
* Flood stage is 12.0 feet.
* Forecast... the river will continue to fall to a stage of 13.2 feet
by Sunday morning.
* Impact... at 13.0 feet... water begins to encroach upon Altamaha
regional park in Glynn County. This inlcudes Altamaha Park Road,
Betty Lott Lane and Bee Tree Island Road. In McIntosh County,
Barrington Park at the end of Harper Lake Road begins to flood.
Blue reach Road also begins to flood near the Long County line.
* Impact... at 12.0 feet... agricultural and Timber lands near the river
are flooded.





               Fld observed 7am EST / 8am EDT forecast
location stg stg day time Sat sun Mon Tue Wed

Altamaha
Everett cit 12 13.4 Fri 08 PM 13.3 13.2 13.1 12.9 12.8



Lat... Lon 3152 8172 3139 8162 3130 8144 3138 8142 3143 8155 3155 8162




Walsh